createdAt,value
2018-04-24T00:00:50.372Z,4.33
2018-04-24T00:03:24.905Z,4.40
2018-04-24T00:05:59.671Z,4.00
2018-04-24T00:08:34.213Z,4.23
2018-04-24T00:11:08.966Z,4.03
2018-04-24T00:13:43.454Z,3.60
2018-04-24T00:16:18.824Z,3.60
2018-04-24T00:18:53.304Z,3.90
2018-04-24T00:21:27.862Z,3.50
2018-04-24T00:24:02.526Z,3.60
2018-04-24T00:26:37.275Z,3.30
2018-04-24T00:29:11.845Z,3.20
2018-04-24T00:31:46.535Z,3.40
2018-04-24T00:34:21.261Z,3.27
2018-04-24T00:36:51.264Z,3.43
2018-04-24T00:39:25.862Z,3.33
2018-04-24T00:42:00.474Z,3.80
2018-04-24T00:44:35.103Z,3.57
2018-04-24T00:47:10.548Z,3.83
2018-04-24T00:49:41.920Z,3.80
2018-04-24T00:52:16.494Z,3.60
2018-04-24T00:54:51.135Z,3.70
2018-04-24T00:57:25.643Z,3.80
2018-04-24T01:00:01.000Z,4.00
2018-04-24T01:02:35.703Z,3.87
2018-04-24T01:05:10.291Z,3.90
2018-04-24T01:07:45.595Z,4.30
2018-04-24T01:10:21.009Z,3.70
2018-04-24T01:12:55.580Z,4.00
2018-04-24T01:15:30.186Z,4.70
2018-04-24T01:18:04.782Z,4.03
2018-04-24T01:20:39.676Z,4.20
2018-04-24T01:23:14.190Z,4.00
2018-04-24T01:25:48.555Z,4.40
2018-04-24T01:28:23.155Z,4.40
2018-04-24T01:30:57.866Z,4.20
2018-04-24T01:33:32.499Z,3.97
2018-04-24T01:36:07.271Z,4.10
2018-04-24T01:38:42.057Z,4.60
2018-04-24T01:41:16.906Z,4.77
2018-04-24T01:43:51.245Z,6.20
2018-04-24T01:46:25.946Z,5.03
2018-04-24T01:48:55.891Z,5.40
2018-04-24T01:51:30.531Z,6.80
2018-04-24T01:54:05.313Z,6.80
2018-04-24T01:56:40.022Z,8.27
2018-04-24T01:59:14.726Z,10.40
2018-04-24T02:01:49.306Z,8.23
2018-04-24T02:04:23.969Z,8.00
2018-04-24T02:06:59.310Z,7.60
2018-04-24T02:09:29.881Z,5.83
2018-04-24T02:12:04.386Z,6.07
2018-04-24T02:14:39.024Z,5.20
2018-04-24T02:17:14.305Z,4.60
2018-04-24T02:19:48.936Z,5.40
2018-04-24T02:22:23.552Z,4.90
2018-04-24T02:24:58.315Z,7.07
2018-04-24T02:27:33.014Z,8.17
2018-04-24T02:30:07.850Z,10.97
2018-04-24T02:32:42.344Z,8.30
2018-04-24T02:35:16.983Z,6.57
2018-04-24T02:37:52.329Z,5.40
2018-04-24T02:40:27.897Z,4.83
2018-04-24T02:43:02.651Z,4.20
2018-04-24T02:45:37.267Z,4.77
2018-04-24T02:48:12.017Z,4.50
2018-04-24T02:50:46.727Z,4.90
2018-04-24T02:53:21.423Z,5.13
2018-04-24T02:55:56.182Z,5.30
2018-04-24T02:58:31.438Z,4.83
2018-04-24T03:01:06.071Z,4.83
2018-04-24T03:03:40.754Z,4.93
2018-04-24T03:06:15.586Z,5.90
2018-04-24T03:08:50.559Z,6.23
2018-04-24T03:11:25.275Z,6.93
2018-04-24T03:13:59.882Z,6.23
2018-04-24T03:16:38.258Z,6.17
2018-04-24T03:19:12.920Z,6.07
2018-04-24T03:21:47.567Z,6.30
2018-04-24T03:24:22.540Z,6.60
2018-04-24T03:26:57.088Z,6.40
2018-04-24T03:29:31.692Z,6.57
2018-04-24T03:32:06.290Z,6.67
2018-04-24T03:34:40.951Z,6.27
2018-04-24T03:37:15.803Z,6.27
2018-04-24T03:39:50.564Z,6.07
2018-04-24T03:42:25.251Z,5.70
2018-04-24T03:44:59.898Z,4.93
2018-04-24T03:47:35.282Z,5.40
2018-04-24T03:50:10.697Z,5.57
2018-04-24T03:52:45.375Z,5.80
2018-04-24T03:55:19.954Z,6.13
2018-04-24T03:57:54.782Z,6.10
2018-04-24T04:00:29.445Z,5.80
2018-04-24T04:03:04.305Z,6.53
2018-04-24T04:05:39.250Z,6.73
2018-04-24T04:08:10.328Z,5.90
2018-04-24T04:10:45.105Z,6.20
2018-04-24T04:13:19.940Z,6.30
2018-04-24T04:15:54.676Z,6.00
2018-04-24T04:18:40.503Z,5.77
2018-04-24T04:21:26.524Z,6.90
2018-04-24T04:24:13.389Z,6.10
2018-04-24T04:26:48.077Z,6.20
2018-04-24T04:29:22.918Z,6.90
2018-04-24T04:31:57.528Z,5.90
2018-04-24T04:34:32.845Z,6.60
2018-04-24T04:37:07.189Z,5.67
2018-04-24T04:39:42.496Z,5.97
2018-04-24T04:42:17.849Z,6.07
2018-04-24T04:44:52.396Z,6.13
2018-04-24T04:47:27.348Z,6.70
2018-04-24T04:50:01.977Z,6.33
2018-04-24T04:52:36.720Z,8.33
2018-04-24T04:55:11.324Z,6.80
2018-04-24T04:57:45.894Z,10.23
2018-04-24T05:00:20.483Z,11.40
2018-04-24T05:02:55.219Z,14.47
2018-04-24T05:05:25.611Z,11.53
2018-04-24T05:07:55.727Z,10.03
2018-04-24T05:10:24.642Z,8.97
2018-04-24T05:12:54.545Z,7.17
2018-04-24T05:15:24.454Z,8.57
2018-04-24T05:17:53.514Z,8.17
2018-04-24T05:20:23.511Z,8.40
2018-04-24T05:22:53.335Z,8.80
2018-04-24T05:25:22.405Z,7.40
2018-04-24T05:27:52.223Z,6.47
2018-04-24T05:30:21.369Z,5.10
2018-04-24T05:32:52.083Z,6.10
2018-04-24T05:35:21.191Z,5.20
2018-04-24T05:37:50.275Z,5.30
2018-04-24T05:40:19.415Z,5.37
2018-04-24T05:42:49.120Z,4.87
2018-04-24T05:45:18.070Z,5.30
2018-04-24T05:47:47.359Z,5.50
2018-04-24T05:50:17.289Z,4.83
2018-04-24T05:52:46.497Z,4.80
2018-04-24T05:55:16.304Z,4.90
2018-04-24T05:57:45.318Z,5.00
2018-04-24T06:00:14.437Z,5.83
2018-04-24T06:02:44.691Z,4.97
2018-04-24T06:05:13.726Z,5.37
2018-04-24T06:07:43.092Z,4.73
2018-04-24T06:10:17.826Z,4.93
2018-04-24T06:12:46.802Z,4.90
2018-04-24T06:15:16.031Z,5.30
2018-04-24T06:17:47.211Z,5.03
2018-04-24T06:20:22.157Z,4.20
2018-04-24T06:22:52.535Z,4.83
2018-04-24T06:25:21.454Z,4.87
2018-04-24T06:27:51.359Z,4.87
2018-04-24T06:30:20.307Z,5.40
2018-04-24T06:32:55.061Z,5.33
2018-04-24T06:35:24.900Z,5.93
2018-04-24T06:37:59.673Z,5.20
2018-04-24T06:40:34.325Z,4.50
2018-04-24T06:43:09.973Z,5.20
2018-04-24T06:45:45.490Z,4.93
2018-04-24T06:48:20.120Z,5.10
2018-04-24T06:50:54.691Z,5.47
2018-04-24T06:53:29.305Z,5.03
2018-04-24T06:56:05.317Z,5.33
2018-04-24T06:58:34.345Z,5.03
2018-04-24T07:01:08.984Z,4.70
2018-04-24T07:03:44.362Z,5.47
2018-04-24T07:06:19.003Z,5.20
2018-04-24T07:08:53.619Z,5.10
2018-04-24T07:11:28.543Z,5.63
2018-04-24T07:14:03.233Z,5.50
2018-04-24T07:16:37.805Z,5.63
2018-04-24T07:19:09.314Z,6.27
2018-04-24T07:21:44.901Z,5.47
2018-04-24T07:24:20.417Z,5.27
2018-04-24T07:26:55.018Z,5.03
2018-04-24T07:29:29.893Z,4.97
2018-04-24T07:32:04.517Z,5.27
2018-04-24T07:34:39.138Z,5.50
2018-04-24T07:37:13.808Z,5.27
2018-04-24T07:39:48.437Z,5.30
2018-04-24T07:42:23.880Z,5.70
2018-04-24T07:44:58.651Z,5.77
2018-04-24T07:47:33.189Z,5.17
2018-04-24T07:50:07.938Z,6.17
2018-04-24T07:52:42.504Z,6.43
2018-04-24T07:55:17.212Z,5.50
2018-04-24T07:57:51.623Z,5.57
2018-04-24T08:00:26.367Z,5.80
2018-04-24T08:03:01.137Z,6.10
2018-04-24T08:05:36.659Z,5.80
2018-04-24T08:08:11.320Z,6.30
2018-04-24T08:10:46.089Z,6.33
2018-04-24T08:13:21.289Z,6.20
2018-04-24T08:15:56.827Z,6.00
2018-04-24T08:18:31.455Z,6.60
2018-04-24T08:21:06.900Z,6.47
2018-04-24T08:23:42.226Z,7.23
2018-04-24T08:26:16.959Z,7.10
2018-04-24T08:28:51.693Z,7.47
2018-04-24T08:31:26.351Z,7.60
2018-04-24T08:33:55.322Z,7.43
2018-04-24T08:36:30.034Z,6.83
2018-04-24T08:39:07.812Z,7.17
2018-04-24T08:41:42.360Z,7.07
2018-04-24T08:44:16.991Z,7.13
2018-04-24T08:46:53.278Z,7.83
2018-04-24T08:49:28.591Z,7.23
2018-04-24T08:52:03.301Z,7.43
2018-04-24T08:54:33.108Z,7.00
2018-04-24T08:57:07.867Z,7.67
2018-04-24T08:59:42.584Z,8.07
2018-04-24T09:02:12.283Z,9.57
2018-04-24T09:04:41.282Z,10.30
2018-04-24T09:07:10.281Z,9.30
2018-04-24T09:09:39.612Z,10.33
2018-04-24T09:12:08.568Z,10.77
2018-04-24T09:14:37.790Z,11.90
2018-04-24T09:17:07.874Z,10.93
2018-04-24T09:19:37.009Z,11.17
2018-04-24T09:22:06.193Z,12.07
2018-04-24T09:24:36.204Z,11.53
2018-04-24T09:27:05.489Z,11.07
2018-04-24T09:29:34.497Z,10.10
2018-04-24T09:32:03.694Z,9.90
2018-04-24T09:34:38.289Z,10.00
2018-04-24T09:37:12.914Z,9.70
2018-04-24T09:39:47.920Z,11.80
2018-04-24T09:42:22.559Z,11.40
2018-04-24T09:44:57.238Z,10.23
2018-04-24T09:47:32.122Z,9.93
2018-04-24T09:50:06.916Z,9.77
2018-04-24T09:52:41.590Z,9.97
2018-04-24T09:55:16.265Z,10.03
2018-04-24T09:57:51.373Z,10.40
2018-04-24T10:00:36.810Z,9.27
2018-04-24T10:03:11.356Z,10.50
2018-04-24T10:05:45.998Z,10.30
2018-04-24T10:08:21.328Z,10.30
2018-04-24T10:10:55.990Z,10.97
2018-04-24T10:13:30.485Z,10.67
2018-04-24T10:16:05.406Z,10.23
2018-04-24T10:18:40.175Z,10.00
2018-04-24T10:21:15.103Z,10.70
2018-04-24T10:23:49.853Z,9.27
2018-04-24T10:26:24.481Z,9.60
2018-04-24T10:28:59.265Z,9.53
2018-04-24T10:31:33.885Z,10.67
2018-04-24T10:34:08.579Z,10.87
2018-04-24T10:36:43.122Z,9.83
2018-04-24T10:39:18.468Z,10.33
2018-04-24T10:41:53.374Z,9.73
2018-04-24T10:44:28.263Z,9.80
2018-04-24T10:47:02.992Z,10.10
2018-04-24T10:49:37.955Z,9.80
2018-04-24T10:52:08.446Z,9.13
2018-04-24T10:54:43.122Z,9.80
2018-04-24T10:57:17.754Z,9.30
2018-04-24T10:59:53.357Z,9.43
2018-04-24T11:02:28.215Z,9.80
2018-04-24T11:05:03.577Z,10.17
2018-04-24T11:07:38.466Z,10.20
2018-04-24T11:10:13.286Z,9.97
2018-04-24T11:12:47.770Z,10.20
2018-04-24T11:15:22.493Z,9.20
2018-04-24T11:17:57.440Z,10.00
2018-04-24T11:20:32.197Z,9.70
2018-04-24T11:23:06.827Z,10.23
2018-04-24T11:25:41.504Z,9.13
2018-04-24T11:28:16.214Z,9.00
2018-04-24T11:30:51.123Z,10.30
2018-04-24T11:33:25.904Z,9.67
2018-04-24T11:36:00.693Z,10.57
2018-04-24T11:38:35.610Z,10.50
2018-04-24T11:41:10.431Z,9.60
2018-04-24T11:43:45.117Z,10.20
2018-04-24T11:46:19.931Z,9.90
2018-04-24T11:48:54.558Z,9.60
2018-04-24T11:51:29.767Z,9.93
2018-04-24T11:54:03.971Z,10.30
2018-04-24T11:56:38.643Z,10.23
2018-04-24T11:59:13.975Z,9.33
2018-04-24T12:01:48.715Z,10.03
2018-04-24T12:04:23.411Z,10.10
2018-04-24T12:06:57.923Z,10.83
2018-04-24T12:09:32.563Z,10.33
2018-04-24T12:12:07.246Z,9.93
2018-04-24T12:14:41.932Z,10.40
2018-04-24T12:17:16.565Z,10.37
2018-04-24T12:19:51.162Z,9.70
2018-04-24T12:22:25.806Z,10.60
2018-04-24T12:25:00.625Z,10.80
2018-04-24T12:27:35.679Z,10.43
2018-04-24T12:30:10.319Z,11.47
2018-04-24T12:32:44.508Z,11.93
2018-04-24T12:35:19.838Z,11.80
2018-04-24T12:37:54.404Z,11.70
2018-04-24T12:40:29.100Z,12.50
2018-04-24T12:43:04.153Z,13.67
2018-04-24T12:45:38.891Z,12.87
2018-04-24T12:48:13.511Z,13.63
2018-04-24T12:50:48.121Z,13.87
2018-04-24T12:53:22.880Z,13.20
2018-04-24T12:55:57.558Z,13.50
2018-04-24T12:58:32.169Z,12.97
2018-04-24T13:01:06.949Z,14.20
2018-04-24T13:03:41.735Z,13.80
2018-04-24T13:06:16.322Z,15.40
2018-04-24T13:08:50.934Z,14.20
2018-04-24T13:11:25.754Z,13.60
2018-04-24T13:14:00.347Z,12.70
2018-04-24T13:16:34.967Z,14.07
2018-04-24T13:19:10.308Z,14.47
2018-04-24T13:21:45.669Z,14.07
2018-04-24T13:24:21.094Z,13.90
2018-04-24T13:26:56.418Z,14.93
2018-04-24T13:29:30.987Z,13.23
2018-04-24T13:32:05.724Z,15.00
2018-04-24T13:34:40.421Z,13.93
2018-04-24T13:37:15.907Z,13.73
2018-04-24T13:39:50.702Z,14.43
2018-04-24T13:42:25.214Z,13.60
2018-04-24T13:44:59.810Z,14.57
2018-04-24T13:47:34.507Z,14.90
2018-04-24T13:50:09.110Z,12.77
2018-04-24T13:52:43.758Z,13.90
2018-04-24T13:55:18.563Z,14.03
2018-04-24T13:57:53.537Z,15.37
2018-04-24T14:00:28.297Z,13.93
2018-04-24T14:03:02.970Z,12.97
2018-04-24T14:05:37.702Z,13.17
2018-04-24T14:08:12.630Z,12.97
2018-04-24T14:10:48.059Z,12.90
2018-04-24T14:13:22.702Z,13.40
2018-04-24T14:15:57.384Z,14.63
2018-04-24T14:18:32.239Z,13.93
2018-04-24T14:21:06.966Z,14.77
2018-04-24T14:23:41.184Z,13.93
2018-04-24T14:26:16.103Z,13.70
2018-04-24T14:28:50.721Z,14.50
2018-04-24T14:31:25.356Z,14.07
2018-04-24T14:34:00.023Z,14.40
2018-04-24T14:36:34.785Z,14.50
2018-04-24T14:39:09.440Z,13.90
2018-04-24T14:41:44.736Z,14.20
2018-04-24T14:44:19.507Z,14.57
2018-04-24T14:46:54.212Z,15.50
2018-04-24T14:49:28.787Z,15.20
2018-04-24T14:52:03.579Z,14.93
2018-04-24T14:54:38.152Z,13.90
2018-04-24T14:57:12.972Z,15.07
2018-04-24T14:59:47.904Z,14.70
2018-04-24T15:02:23.397Z,13.60
2018-04-24T15:04:58.740Z,14.27
2018-04-24T15:07:34.193Z,13.87
2018-04-24T15:10:09.592Z,14.27
2018-04-24T15:12:44.306Z,13.73
2018-04-24T15:15:19.731Z,13.87
2018-04-24T15:17:55.327Z,12.70
2018-04-24T15:20:29.939Z,12.50
2018-04-24T15:23:04.830Z,14.13
2018-04-24T15:25:40.271Z,12.63
2018-04-24T15:28:15.981Z,14.87
2018-04-24T15:30:50.879Z,13.03
2018-04-24T15:33:26.606Z,12.87
2018-04-24T15:36:01.389Z,13.10
2018-04-24T15:38:36.066Z,12.87
2018-04-24T15:41:11.110Z,13.40
2018-04-24T15:43:46.602Z,12.33
2018-04-24T15:46:22.864Z,11.23
2018-04-24T15:48:57.718Z,12.50
2018-04-24T15:51:32.279Z,12.20
2018-04-24T15:54:06.593Z,12.50
2018-04-24T15:56:42.151Z,11.47
2018-04-24T15:59:16.950Z,11.33
2018-04-24T16:01:51.563Z,13.00
2018-04-24T16:04:26.208Z,13.00
2018-04-24T16:07:00.810Z,11.53
2018-04-24T16:09:36.025Z,11.17
2018-04-24T16:12:10.872Z,10.43
2018-04-24T16:14:45.541Z,11.33
2018-04-24T16:17:20.568Z,11.50
2018-04-24T16:19:55.443Z,10.93
2018-04-24T16:22:30.858Z,11.20
2018-04-24T16:25:06.209Z,11.53
2018-04-24T16:27:40.936Z,10.90
2018-04-24T16:30:23.334Z,11.90
2018-04-24T16:32:57.862Z,11.60
2018-04-24T16:35:32.470Z,12.80
2018-04-24T16:38:07.014Z,12.73
2018-04-24T16:40:41.787Z,12.30
2018-04-24T16:43:16.402Z,13.40
2018-04-24T16:45:51.026Z,12.57
2018-04-24T16:48:25.908Z,12.27
2018-04-24T16:51:00.658Z,12.27
2018-04-24T16:53:35.247Z,11.60
2018-04-24T16:56:10.044Z,12.10
2018-04-24T16:58:44.788Z,12.63
2018-04-24T17:01:19.451Z,12.20
2018-04-24T17:03:54.051Z,12.93
2018-04-24T17:06:28.759Z,12.73
2018-04-24T17:09:03.191Z,12.33
2018-04-24T17:11:37.843Z,12.10
2018-04-24T17:14:13.204Z,12.33
2018-04-24T17:16:48.076Z,12.40
2018-04-24T17:19:23.109Z,13.30
2018-04-24T17:21:57.778Z,12.87
2018-04-24T17:24:32.643Z,12.67
2018-04-24T17:27:07.433Z,12.60
2018-04-24T17:29:42.059Z,11.93
2018-04-24T17:32:16.956Z,12.73
2018-04-24T17:34:52.223Z,12.90
2018-04-24T17:37:26.943Z,12.00
2018-04-24T17:40:01.728Z,11.53
2018-04-24T17:42:37.496Z,12.43
2018-04-24T17:45:13.043Z,12.70
2018-04-24T17:47:47.765Z,12.33
2018-04-24T17:50:22.454Z,13.47
2018-04-24T17:52:57.043Z,12.30
2018-04-24T17:55:32.467Z,12.43
2018-04-24T17:58:06.822Z,12.33
2018-04-24T18:00:41.533Z,10.70
2018-04-24T18:03:16.317Z,11.90
2018-04-24T18:05:51.065Z,12.83
2018-04-24T18:08:21.007Z,11.50
2018-04-24T18:10:55.752Z,11.17
2018-04-24T18:13:32.079Z,11.93
2018-04-24T18:16:06.810Z,11.53
2018-04-24T18:18:42.285Z,12.80
2018-04-24T18:21:17.058Z,12.20
2018-04-24T18:23:52.061Z,12.90
2018-04-24T18:26:26.727Z,12.40
2018-04-24T18:29:01.461Z,12.50
2018-04-24T18:31:36.159Z,12.37
2018-04-24T18:34:14.499Z,11.70
2018-04-24T18:36:49.440Z,12.23
2018-04-24T18:39:20.163Z,11.50
2018-04-24T18:41:49.264Z,11.30
2018-04-24T18:44:18.890Z,11.13
2018-04-24T18:46:48.148Z,12.13
2018-04-24T18:49:17.344Z,10.33
2018-04-24T18:51:46.452Z,11.03
2018-04-24T18:54:21.953Z,11.13
2018-04-24T18:56:56.555Z,10.80
2018-04-24T18:59:31.216Z,11.20
2018-04-24T19:02:06.513Z,10.73
2018-04-24T19:04:41.084Z,9.37
2018-04-24T19:07:15.683Z,10.57
2018-04-24T19:09:50.440Z,11.47
2018-04-24T19:12:25.067Z,11.53
2018-04-24T19:14:59.694Z,12.53
2018-04-24T19:17:34.339Z,11.13
2018-04-24T19:20:09.045Z,11.40
2018-04-24T19:22:40.248Z,10.80
2018-04-24T19:25:14.809Z,12.10
2018-04-24T19:27:43.755Z,12.00
2018-04-24T19:30:12.824Z,10.53
2018-04-24T19:32:42.924Z,12.13
2018-04-24T19:35:11.875Z,11.70
2018-04-24T19:37:41.159Z,11.57
2018-04-24T19:40:15.902Z,10.93
2018-04-24T19:42:44.840Z,11.03
2018-04-24T19:45:13.924Z,10.90
2018-04-24T19:47:48.516Z,10.30
2018-04-24T19:50:23.105Z,11.00
2018-04-24T19:52:57.856Z,10.70
2018-04-24T19:55:32.548Z,11.80
2018-04-24T19:58:07.159Z,10.83
2018-04-24T20:00:42.214Z,11.00
2018-04-24T20:03:17.973Z,11.30
2018-04-24T20:05:52.573Z,11.00
2018-04-24T20:08:27.851Z,11.30
2018-04-24T20:11:02.830Z,11.90
2018-04-24T20:13:37.459Z,11.00
2018-04-24T20:16:12.143Z,11.20
2018-04-24T20:18:47.774Z,11.87
2018-04-24T20:21:22.726Z,11.83
2018-04-24T20:23:57.576Z,11.20
2018-04-24T20:26:32.305Z,11.43
2018-04-24T20:29:07.237Z,11.10
2018-04-24T20:31:42.105Z,12.10
2018-04-24T20:34:17.738Z,11.40
2018-04-24T20:36:52.569Z,12.57
2018-04-24T20:39:28.167Z,11.73
2018-04-24T20:42:03.205Z,11.80
2018-04-24T20:44:37.826Z,12.77
2018-04-24T20:47:08.085Z,12.00
2018-04-24T20:49:42.741Z,12.40
2018-04-24T20:52:17.365Z,11.27
2018-04-24T20:54:51.889Z,11.27
2018-04-24T20:57:26.678Z,11.83
2018-04-24T21:00:01.295Z,11.70
2018-04-24T21:02:36.838Z,11.53
2018-04-24T21:05:11.475Z,12.37
2018-04-24T21:07:49.147Z,11.60
2018-04-24T21:10:23.895Z,12.20
2018-04-24T21:12:58.615Z,12.13
2018-04-24T21:15:33.919Z,12.03
2018-04-24T21:18:08.551Z,11.60
2018-04-24T21:20:43.213Z,12.00
2018-04-24T21:23:17.712Z,12.07
2018-04-24T21:25:52.610Z,13.00
2018-04-24T21:28:27.401Z,12.63
2018-04-24T21:31:02.161Z,13.20
2018-04-24T21:33:36.967Z,13.57
2018-04-24T21:36:12.429Z,12.83
2018-04-24T21:38:47.054Z,12.87
2018-04-24T21:41:21.701Z,12.80
2018-04-24T21:43:57.259Z,12.43
2018-04-24T21:46:31.936Z,13.63
2018-04-24T21:49:06.192Z,13.50
2018-04-24T21:51:41.055Z,13.93
2018-04-24T21:54:15.639Z,14.27
2018-04-24T21:56:50.346Z,13.77
2018-04-24T21:59:25.080Z,14.27
2018-04-24T22:01:59.624Z,15.00
2018-04-24T22:04:34.402Z,13.43
2018-04-24T22:07:10.028Z,13.70
2018-04-24T22:09:44.733Z,16.13
2018-04-24T22:12:19.545Z,14.93
2018-04-24T22:14:54.479Z,14.67
2018-04-24T22:17:29.926Z,14.80
2018-04-24T22:20:03.808Z,14.93
2018-04-24T22:22:39.437Z,14.77
2018-04-24T22:25:13.986Z,16.40
2018-04-24T22:27:48.663Z,14.80
2018-04-24T22:30:23.171Z,15.70
2018-04-24T22:32:57.688Z,15.80
2018-04-24T22:35:32.509Z,15.10
2018-04-24T22:38:07.313Z,15.73
2018-04-24T22:40:42.015Z,15.00
2018-04-24T22:43:16.715Z,14.90
2018-04-24T22:45:51.598Z,16.73
2018-04-24T22:48:26.314Z,15.67
2018-04-24T22:51:00.968Z,15.97
2018-04-24T22:53:35.632Z,14.90
2018-04-24T22:56:10.287Z,15.40
2018-04-24T22:58:45.159Z,14.43
2018-04-24T23:01:20.174Z,14.47
2018-04-24T23:03:54.643Z,14.67
2018-04-24T23:06:29.272Z,15.60
2018-04-24T23:09:03.533Z,14.00
2018-04-24T23:11:49.568Z,15.17
2018-04-24T23:14:35.518Z,16.13
2018-04-24T23:17:21.560Z,15.40
2018-04-24T23:20:07.433Z,15.20
2018-04-24T23:22:42.727Z,14.93
2018-04-24T23:25:17.460Z,14.50
2018-04-24T23:27:52.460Z,14.10
2018-04-24T23:30:27.031Z,13.90
2018-04-24T23:33:01.707Z,13.83
2018-04-24T23:35:34.926Z,13.40
2018-04-24T23:38:09.662Z,12.30
2018-04-24T23:40:44.283Z,11.10
2018-04-24T23:43:18.981Z,10.67
2018-04-24T23:45:53.442Z,11.50
2018-04-24T23:48:28.196Z,11.03
2018-04-24T23:51:02.808Z,11.00
2018-04-24T23:53:37.580Z,10.87
2018-04-24T23:56:11.897Z,10.30
2018-04-24T23:58:46.586Z,9.47
